sensor_id;sensor_type;location;lat;lon;timestamp;temperature;humidity
47805;DHT22;33568;45.286;9.900;2022-12-18T00:03:41;6.90;99.90
47805;DHT22;33568;45.286;9.900;2022-12-18T00:06:08;6.90;99.90
47805;DHT22;33568;45.286;9.900;2022-12-18T00:08:35;7.00;99.90
47805;DHT22;33568;45.286;9.900;2022-12-18T00:11:10;7.00;99.90
47805;DHT22;33568;45.286;9.900;2022-12-18T00:13:37;7.10;99.90
47805;DHT22;33568;45.286;9.900;2022-12-18T00:16:04;7.10;99.90
47805;DHT22;33568;45.286;9.900;2022-12-18T00:18:31;7.00;99.90
47805;DHT22;33568;45.286;9.900;2022-12-18T00:21:00;7.10;99.90
47805;DHT22;33568;45.286;9.900;2022-12-18T00:23:28;7.20;99.90
47805;DHT22;33568;45.286;9.900;2022-12-18T00:25:58;7.20;99.90
47805;DHT22;33568;45.286;9.900;2022-12-18T00:28:25;7.30;99.90
47805;DHT22;33568;45.286;9.900;2022-12-18T00:31:02;7.30;99.90
47805;DHT22;33568;45.286;9.900;2022-12-18T00:33:29;7.30;99.90
47805;DHT22;33568;45.286;9.900;2022-12-18T00:36:03;7.40;99.90
47805;DHT22;33568;45.286;9.900;2022-12-18T00:38:32;7.40;99.90
47805;DHT22;33568;45.286;9.900;2022-12-18T00:40:58;7.40;99.90
47805;DHT22;33568;45.286;9.900;2022-12-18T00:43:25;7.40;99.90
47805;DHT22;33568;45.286;9.900;2022-12-18T00:45:52;7.40;99.90
47805;DHT22;33568;45.286;9.900;2022-12-18T00:48:19;7.40;99.90
47805;DHT22;33568;45.286;9.900;2022-12-18T00:50:46;7.50;99.90
47805;DHT22;33568;45.286;9.900;2022-12-18T00:53:13;7.40;99.90
47805;DHT22;33568;45.286;9.900;2022-12-18T00:55:39;7.50;99.90
47805;DHT22;33568;45.286;9.900;2022-12-18T00:58:06;7.50;99.90
47805;DHT22;33568;45.286;9.900;2022-12-18T01:00:35;7.60;99.90
47805;DHT22;33568;45.286;9.900;2022-12-18T01:03:02;7.60;99.90
47805;DHT22;33568;45.286;9.900;2022-12-18T01:05:28;7.60;99.90
47805;DHT22;33568;45.286;9.900;2022-12-18T01:07:56;7.60;99.90
47805;DHT22;33568;45.286;9.900;2022-12-18T01:10:23;7.70;99.90
47805;DHT22;33568;45.286;9.900;2022-12-18T01:12:50;7.70;99.90
47805;DHT22;33568;45.286;9.900;2022-12-18T01:15:18;7.70;99.90
47805;DHT22;33568;45.286;9.900;2022-12-18T01:17:45;7.80;99.90
47805;DHT22;33568;45.286;9.900;2022-12-18T01:20:12;7.80;99.90
47805;DHT22;33568;45.286;9.900;2022-12-18T01:22:39;7.80;99.90
47805;DHT22;33568;45.286;9.900;2022-12-18T01:25:07;7.80;99.90
47805;DHT22;33568;45.286;9.900;2022-12-18T01:27:34;7.80;99.90
47805;DHT22;33568;45.286;9.900;2022-12-18T01:30:04;7.80;99.90
47805;DHT22;33568;45.286;9.900;2022-12-18T01:32:31;7.80;99.90
47805;DHT22;33568;45.286;9.900;2022-12-18T01:34:57;7.90;99.90
47805;DHT22;33568;45.286;9.900;2022-12-18T01:37:24;7.80;99.90
47805;DHT22;33568;45.286;9.900;2022-12-18T01:39:51;7.80;99.90
47805;DHT22;33568;45.286;9.900;2022-12-18T01:42:20;7.80;99.90
47805;DHT22;33568;45.286;9.900;2022-12-18T01:50:13;7.80;99.90
47805;DHT22;33568;45.286;9.900;2022-12-18T01:52:43;7.80;99.90
47805;DHT22;33568;45.286;9.900;2022-12-18T01:55:11;7.90;99.90
47805;DHT22;33568;45.286;9.900;2022-12-18T01:57:39;7.80;99.90
47805;DHT22;33568;45.286;9.900;2022-12-18T02:00:10;7.80;99.90
47805;DHT22;33568;45.286;9.900;2022-12-18T02:02:41;7.80;99.90
47805;DHT22;33568;45.286;9.900;2022-12-18T02:05:10;7.80;99.90
47805;DHT22;33568;45.286;9.900;2022-12-18T02:07:42;7.80;99.90
47805;DHT22;33568;45.286;9.900;2022-12-18T02:10:35;7.80;99.90
47805;DHT22;33568;45.286;9.900;2022-12-18T02:13:29;7.70;99.90
47805;DHT22;33568;45.286;9.900;2022-12-18T02:18:47;7.70;99.90
47805;DHT22;33568;45.286;9.900;2022-12-18T02:27:00;7.70;99.90
47805;DHT22;33568;45.286;9.900;2022-12-18T02:29:42;7.60;99.90
47805;DHT22;33568;45.286;9.900;2022-12-18T02:32:15;7.60;99.90
47805;DHT22;33568;45.286;9.900;2022-12-18T02:34:44;7.60;99.90
47805;DHT22;33568;45.286;9.900;2022-12-18T02:37:16;7.60;99.90
47805;DHT22;33568;45.286;9.900;2022-12-18T02:39:46;7.60;99.90
47805;DHT22;33568;45.286;9.900;2022-12-18T02:42:15;7.60;99.90
47805;DHT22;33568;45.286;9.900;2022-12-18T02:44:48;7.60;99.90
47805;DHT22;33568;45.286;9.900;2022-12-18T02:47:21;7.60;99.90
47805;DHT22;33568;45.286;9.900;2022-12-18T02:52:47;7.70;99.90
47805;DHT22;33568;45.286;9.900;2022-12-18T02:57:56;7.60;99.90
47805;DHT22;33568;45.286;9.900;2022-12-18T03:00:29;7.50;99.90
47805;DHT22;33568;45.286;9.900;2022-12-18T03:03:03;7.50;99.90
47805;DHT22;33568;45.286;9.900;2022-12-18T03:05:40;7.50;99.90
47805;DHT22;33568;45.286;9.900;2022-12-18T03:08:12;7.50;99.90
47805;DHT22;33568;45.286;9.900;2022-12-18T03:13:33;7.50;99.90
47805;DHT22;33568;45.286;9.900;2022-12-18T03:16:01;7.50;99.90
47805;DHT22;33568;45.286;9.900;2022-12-18T03:18:37;7.50;99.90
47805;DHT22;33568;45.286;9.900;2022-12-18T03:21:06;7.60;99.90
47805;DHT22;33568;45.286;9.900;2022-12-18T03:23:44;7.60;99.90
47805;DHT22;33568;45.286;9.900;2022-12-18T03:26:19;7.50;99.90
47805;DHT22;33568;45.286;9.900;2022-12-18T03:28:52;7.50;99.90
47805;DHT22;33568;45.286;9.900;2022-12-18T03:31:22;7.50;99.90
47805;DHT22;33568;45.286;9.900;2022-12-18T03:33:54;7.40;99.90
47805;DHT22;33568;45.286;9.900;2022-12-18T03:36:25;7.30;99.90
47805;DHT22;33568;45.286;9.900;2022-12-18T03:38:56;7.40;99.90
47805;DHT22;33568;45.286;9.900;2022-12-18T03:41:38;7.40;99.90
47805;DHT22;33568;45.286;9.900;2022-12-18T03:45:14;7.40;99.90
47805;DHT22;33568;45.286;9.900;2022-12-18T03:50:41;7.30;99.90
47805;DHT22;33568;45.286;9.900;2022-12-18T03:53:22;7.30;99.90
47805;DHT22;33568;45.286;9.900;2022-12-18T03:55:52;7.30;99.90
47805;DHT22;33568;45.286;9.900;2022-12-18T03:58:23;7.30;99.90
47805;DHT22;33568;45.286;9.900;2022-12-18T04:01:01;7.40;99.90
47805;DHT22;33568;45.286;9.900;2022-12-18T04:03:31;7.30;99.90
47805;DHT22;33568;45.286;9.900;2022-12-18T04:05:59;7.30;99.90
47805;DHT22;33568;45.286;9.900;2022-12-18T04:08:28;7.40;99.90
47805;DHT22;33568;45.286;9.900;2022-12-18T04:11:03;7.30;99.90
47805;DHT22;33568;45.286;9.900;2022-12-18T04:13:36;7.30;99.90
47805;DHT22;33568;45.286;9.900;2022-12-18T04:16:07;7.30;99.90
47805;DHT22;33568;45.286;9.900;2022-12-18T04:18:34;7.30;99.90
47805;DHT22;33568;45.286;9.900;2022-12-18T04:21:02;7.30;99.90
47805;DHT22;33568;45.286;9.900;2022-12-18T04:23:29;7.40;99.90
47805;DHT22;33568;45.286;9.900;2022-12-18T04:25:57;7.40;99.90
47805;DHT22;33568;45.286;9.900;2022-12-18T04:28:40;7.40;99.90
47805;DHT22;33568;45.286;9.900;2022-12-18T04:31:06;7.40;99.90
47805;DHT22;33568;45.286;9.900;2022-12-18T04:33:33;7.30;99.90
47805;DHT22;33568;45.286;9.900;2022-12-18T04:35:59;7.30;99.90
47805;DHT22;33568;45.286;9.900;2022-12-18T04:38:26;7.20;99.90
47805;DHT22;33568;45.286;9.900;2022-12-18T04:41:01;7.30;99.90
47805;DHT22;33568;45.286;9.900;2022-12-18T04:43:27;7.30;99.90
47805;DHT22;33568;45.286;9.900;2022-12-18T04:45:53;7.20;99.90
47805;DHT22;33568;45.286;9.900;2022-12-18T04:48:26;7.10;99.90
47805;DHT22;33568;45.286;9.900;2022-12-18T04:50:53;7.20;99.90
47805;DHT22;33568;45.286;9.900;2022-12-18T04:53:19;7.20;99.90
47805;DHT22;33568;45.286;9.900;2022-12-18T04:55:45;7.20;99.90
47805;DHT22;33568;45.286;9.900;2022-12-18T04:58:12;7.20;99.90
47805;DHT22;33568;45.286;9.900;2022-12-18T05:00:38;7.30;99.90
47805;DHT22;33568;45.286;9.900;2022-12-18T05:03:05;7.30;99.90
47805;DHT22;33568;45.286;9.900;2022-12-18T05:05:34;7.30;99.90
47805;DHT22;33568;45.286;9.900;2022-12-18T05:08:01;7.20;99.90
47805;DHT22;33568;45.286;9.900;2022-12-18T05:10:27;7.20;99.90
47805;DHT22;33568;45.286;9.900;2022-12-18T05:12:53;7.20;99.90
47805;DHT22;33568;45.286;9.900;2022-12-18T05:15:30;7.20;99.90
47805;DHT22;33568;45.286;9.900;2022-12-18T05:17:57;7.30;99.90
47805;DHT22;33568;45.286;9.900;2022-12-18T05:20:25;7.20;99.90
47805;DHT22;33568;45.286;9.900;2022-12-18T05:22:52;7.20;99.90
47805;DHT22;33568;45.286;9.900;2022-12-18T05:25:18;7.10;99.90
47805;DHT22;33568;45.286;9.900;2022-12-18T05:27:45;7.10;99.90
47805;DHT22;33568;45.286;9.900;2022-12-18T05:30:12;7.10;99.90
47805;DHT22;33568;45.286;9.900;2022-12-18T05:32:39;7.10;99.90
47805;DHT22;33568;45.286;9.900;2022-12-18T05:35:06;7.10;99.90
47805;DHT22;33568;45.286;9.900;2022-12-18T05:37:33;6.90;99.90
47805;DHT22;33568;45.286;9.900;2022-12-18T05:40:00;6.90;99.90
47805;DHT22;33568;45.286;9.900;2022-12-18T05:42:26;7.00;99.90
47805;DHT22;33568;45.286;9.900;2022-12-18T05:44:52;6.90;99.90
47805;DHT22;33568;45.286;9.900;2022-12-18T05:47:19;6.90;99.90
47805;DHT22;33568;45.286;9.900;2022-12-18T05:49:45;6.90;99.90
47805;DHT22;33568;45.286;9.900;2022-12-18T05:52:12;7.00;99.90
47805;DHT22;33568;45.286;9.900;2022-12-18T05:54:38;6.90;99.90
47805;DHT22;33568;45.286;9.900;2022-12-18T05:57:05;6.90;99.90
47805;DHT22;33568;45.286;9.900;2022-12-18T05:59:32;6.80;99.90
47805;DHT22;33568;45.286;9.900;2022-12-18T06:01:58;6.90;99.90
47805;DHT22;33568;45.286;9.900;2022-12-18T06:04:27;6.90;99.90
47805;DHT22;33568;45.286;9.900;2022-12-18T06:06:54;6.90;99.90
47805;DHT22;33568;45.286;9.900;2022-12-18T06:09:21;6.80;99.90
47805;DHT22;33568;45.286;9.900;2022-12-18T06:11:47;6.80;99.90
47805;DHT22;33568;45.286;9.900;2022-12-18T06:14:13;6.80;99.90
47805;DHT22;33568;45.286;9.900;2022-12-18T06:16:43;6.80;99.90
47805;DHT22;33568;45.286;9.900;2022-12-18T06:19:15;6.70;99.90
47805;DHT22;33568;45.286;9.900;2022-12-18T06:21:41;6.70;99.90
47805;DHT22;33568;45.286;9.900;2022-12-18T06:24:08;6.80;99.90
47805;DHT22;33568;45.286;9.900;2022-12-18T06:26:37;6.70;99.90
47805;DHT22;33568;45.286;9.900;2022-12-18T06:29:04;6.70;99.90
47805;DHT22;33568;45.286;9.900;2022-12-18T06:31:30;6.70;99.90
47805;DHT22;33568;45.286;9.900;2022-12-18T06:33:57;6.80;99.90
47805;DHT22;33568;45.286;9.900;2022-12-18T06:36:23;6.70;99.90
47805;DHT22;33568;45.286;9.900;2022-12-18T06:38:49;6.70;99.90
47805;DHT22;33568;45.286;9.900;2022-12-18T06:41:19;6.70;99.90
47805;DHT22;33568;45.286;9.900;2022-12-18T06:43:46;6.80;99.90
47805;DHT22;33568;45.286;9.900;2022-12-18T06:46:12;6.90;99.90
47805;DHT22;33568;45.286;9.900;2022-12-18T06:48:39;6.80;99.90
47805;DHT22;33568;45.286;9.900;2022-12-18T06:51:05;6.80;99.90
47805;DHT22;33568;45.286;9.900;2022-12-18T06:53:32;6.80;99.90
47805;DHT22;33568;45.286;9.900;2022-12-18T06:56:06;6.80;99.90
47805;DHT22;33568;45.286;9.900;2022-12-18T06:58:33;6.90;99.90
47805;DHT22;33568;45.286;9.900;2022-12-18T07:01:01;6.90;99.90
47805;DHT22;33568;45.286;9.900;2022-12-18T07:03:28;7.00;99.90
47805;DHT22;33568;45.286;9.900;2022-12-18T07:05:54;7.00;99.90
47805;DHT22;33568;45.286;9.900;2022-12-18T07:08:21;7.00;99.90
47805;DHT22;33568;45.286;9.900;2022-12-18T07:10:47;7.00;99.90
47805;DHT22;33568;45.286;9.900;2022-12-18T07:13:16;7.00;99.90
47805;DHT22;33568;45.286;9.900;2022-12-18T07:15:43;7.00;99.90
47805;DHT22;33568;45.286;9.900;2022-12-18T07:18:10;7.00;99.90
47805;DHT22;33568;45.286;9.900;2022-12-18T07:20:36;7.00;99.90
47805;DHT22;33568;45.286;9.900;2022-12-18T07:23:04;6.90;99.90
47805;DHT22;33568;45.286;9.900;2022-12-18T07:25:37;6.90;99.90
47805;DHT22;33568;45.286;9.900;2022-12-18T07:28:04;7.00;99.90
47805;DHT22;33568;45.286;9.900;2022-12-18T07:30:30;7.00;99.90
47805;DHT22;33568;45.286;9.900;2022-12-18T07:32:57;7.00;99.90
47805;DHT22;33568;45.286;9.900;2022-12-18T07:35:23;7.00;99.90
47805;DHT22;33568;45.286;9.900;2022-12-18T07:37:49;7.00;99.90
47805;DHT22;33568;45.286;9.900;2022-12-18T07:40:16;7.00;99.90
47805;DHT22;33568;45.286;9.900;2022-12-18T07:42:42;7.00;99.90
47805;DHT22;33568;45.286;9.900;2022-12-18T07:45:09;7.10;99.90
47805;DHT22;33568;45.286;9.900;2022-12-18T07:47:35;7.10;99.90
47805;DHT22;33568;45.286;9.900;2022-12-18T07:50:02;7.00;99.90
47805;DHT22;33568;45.286;9.900;2022-12-18T07:52:29;6.90;99.90
47805;DHT22;33568;45.286;9.900;2022-12-18T07:54:55;6.90;99.90
47805;DHT22;33568;45.286;9.900;2022-12-18T07:57:22;6.90;99.90
47805;DHT22;33568;45.286;9.900;2022-12-18T07:59:48;6.90;99.90
47805;DHT22;33568;45.286;9.900;2022-12-18T08:02:14;6.90;99.90
47805;DHT22;33568;45.286;9.900;2022-12-18T08:04:41;7.00;99.90
47805;DHT22;33568;45.286;9.900;2022-12-18T08:07:07;7.10;99.90
47805;DHT22;33568;45.286;9.900;2022-12-18T08:09:33;7.10;99.90
47805;DHT22;33568;45.286;9.900;2022-12-18T08:12:00;7.10;99.90
47805;DHT22;33568;45.286;9.900;2022-12-18T08:14:26;7.00;99.90
47805;DHT22;33568;45.286;9.900;2022-12-18T08:16:52;7.00;99.90
47805;DHT22;33568;45.286;9.900;2022-12-18T08:19:19;7.00;99.90
47805;DHT22;33568;45.286;9.900;2022-12-18T08:21:45;7.00;99.90
47805;DHT22;33568;45.286;9.900;2022-12-18T08:24:12;7.00;99.90
47805;DHT22;33568;45.286;9.900;2022-12-18T08:26:38;7.10;99.90
47805;DHT22;33568;45.286;9.900;2022-12-18T08:29:04;7.10;99.90
47805;DHT22;33568;45.286;9.900;2022-12-18T08:31:31;7.10;99.90
47805;DHT22;33568;45.286;9.900;2022-12-18T08:33:57;7.20;99.90
47805;DHT22;33568;45.286;9.900;2022-12-18T08:36:24;7.30;99.90
47805;DHT22;33568;45.286;9.900;2022-12-18T08:38:51;7.20;99.90
47805;DHT22;33568;45.286;9.900;2022-12-18T08:41:18;7.30;99.90
47805;DHT22;33568;45.286;9.900;2022-12-18T08:43:45;7.30;99.90
47805;DHT22;33568;45.286;9.900;2022-12-18T08:46:38;7.40;99.90
47805;DHT22;33568;45.286;9.900;2022-12-18T08:49:05;7.50;99.90
47805;DHT22;33568;45.286;9.900;2022-12-18T08:51:32;7.60;99.90
47805;DHT22;33568;45.286;9.900;2022-12-18T08:53:58;7.50;99.90
47805;DHT22;33568;45.286;9.900;2022-12-18T08:56:25;7.50;99.90
47805;DHT22;33568;45.286;9.900;2022-12-18T08:58:53;7.60;99.90
47805;DHT22;33568;45.286;9.900;2022-12-18T09:01:20;7.60;99.90
47805;DHT22;33568;45.286;9.900;2022-12-18T09:03:47;7.70;99.90
47805;DHT22;33568;45.286;9.900;2022-12-18T09:06:14;7.70;99.90
47805;DHT22;33568;45.286;9.900;2022-12-18T09:08:43;7.80;99.90
47805;DHT22;33568;45.286;9.900;2022-12-18T09:11:21;7.80;99.90
47805;DHT22;33568;45.286;9.900;2022-12-18T09:13:48;7.80;99.90
47805;DHT22;33568;45.286;9.900;2022-12-18T09:16:15;7.70;99.90
47805;DHT22;33568;45.286;9.900;2022-12-18T09:18:41;7.60;99.90
47805;DHT22;33568;45.286;9.900;2022-12-18T09:21:16;7.60;99.90
47805;DHT22;33568;45.286;9.900;2022-12-18T09:23:43;7.70;99.90
47805;DHT22;33568;45.286;9.900;2022-12-18T09:26:10;7.90;99.90
47805;DHT22;33568;45.286;9.900;2022-12-18T09:28:36;8.00;99.90
47805;DHT22;33568;45.286;9.900;2022-12-18T09:31:05;8.10;99.90
47805;DHT22;33568;45.286;9.900;2022-12-18T09:33:36;8.20;99.90
47805;DHT22;33568;45.286;9.900;2022-12-18T09:36:05;8.10;99.90
47805;DHT22;33568;45.286;9.900;2022-12-18T09:38:32;8.20;99.90
47805;DHT22;33568;45.286;9.900;2022-12-18T09:43:51;8.20;99.90
47805;DHT22;33568;45.286;9.900;2022-12-18T09:46:26;8.30;99.90
47805;DHT22;33568;45.286;9.900;2022-12-18T09:48:59;8.30;99.90
47805;DHT22;33568;45.286;9.900;2022-12-18T09:51:27;8.40;99.90
47805;DHT22;33568;45.286;9.900;2022-12-18T09:54:07;8.40;99.90
47805;DHT22;33568;45.286;9.900;2022-12-18T09:56:40;8.30;99.90
47805;DHT22;33568;45.286;9.900;2022-12-18T09:59:20;8.30;99.90
47805;DHT22;33568;45.286;9.900;2022-12-18T10:01:47;8.30;99.90
47805;DHT22;33568;45.286;9.900;2022-12-18T10:04:13;8.20;99.90
47805;DHT22;33568;45.286;9.900;2022-12-18T10:06:55;8.20;99.90
47805;DHT22;33568;45.286;9.900;2022-12-18T10:12:44;8.20;99.90
47805;DHT22;33568;45.286;9.900;2022-12-18T10:16:13;8.10;99.90
47805;DHT22;33568;45.286;9.900;2022-12-18T10:21:39;8.00;99.90
47805;DHT22;33568;45.286;9.900;2022-12-18T10:24:14;8.00;99.90
47805;DHT22;33568;45.286;9.900;2022-12-18T10:26:41;8.00;99.90
47805;DHT22;33568;45.286;9.900;2022-12-18T10:29:13;8.10;99.90
47805;DHT22;33568;45.286;9.900;2022-12-18T10:31:39;8.00;99.90
47805;DHT22;33568;45.286;9.900;2022-12-18T10:34:12;7.90;99.90
47805;DHT22;33568;45.286;9.900;2022-12-18T10:36:38;7.70;99.90
47805;DHT22;33568;45.286;9.900;2022-12-18T10:39:21;7.80;99.90
47805;DHT22;33568;45.286;9.900;2022-12-18T10:41:50;7.80;99.90
47805;DHT22;33568;45.286;9.900;2022-12-18T10:44:21;7.80;99.90
47805;DHT22;33568;45.286;9.900;2022-12-18T10:47:03;7.80;99.90
47805;DHT22;33568;45.286;9.900;2022-12-18T10:49:32;7.90;99.90
47805;DHT22;33568;45.286;9.900;2022-12-18T10:52:20;8.00;99.90
47805;DHT22;33568;45.286;9.900;2022-12-18T10:54:55;8.00;99.90
47805;DHT22;33568;45.286;9.900;2022-12-18T10:57:36;7.90;99.90
47805;DHT22;33568;45.286;9.900;2022-12-18T11:00:41;7.80;99.90
47805;DHT22;33568;45.286;9.900;2022-12-18T11:03:33;7.70;99.90
47805;DHT22;33568;45.286;9.900;2022-12-18T11:06:05;7.60;99.90
47805;DHT22;33568;45.286;9.900;2022-12-18T11:08:31;7.60;99.90
47805;DHT22;33568;45.286;9.900;2022-12-18T11:10:58;7.70;99.90
47805;DHT22;33568;45.286;9.900;2022-12-18T11:13:27;7.70;99.90
47805;DHT22;33568;45.286;9.900;2022-12-18T11:15:54;7.90;99.90
47805;DHT22;33568;45.286;9.900;2022-12-18T11:18:30;8.00;99.90
47805;DHT22;33568;45.286;9.900;2022-12-18T11:21:08;8.20;99.90
47805;DHT22;33568;45.286;9.900;2022-12-18T11:23:36;8.40;99.90
47805;DHT22;33568;45.286;9.900;2022-12-18T11:26:04;8.30;99.90
47805;DHT22;33568;45.286;9.900;2022-12-18T11:28:40;8.10;99.90
47805;DHT22;33568;45.286;9.900;2022-12-18T11:31:24;8.10;99.90
47805;DHT22;33568;45.286;9.900;2022-12-18T11:36:33;8.10;99.90
47805;DHT22;33568;45.286;9.900;2022-12-18T11:39:13;8.10;99.90
47805;DHT22;33568;45.286;9.900;2022-12-18T11:44:38;8.40;99.90
47805;DHT22;33568;45.286;9.900;2022-12-18T11:47:29;8.40;99.90
47805;DHT22;33568;45.286;9.900;2022-12-18T11:50:00;8.60;99.90
47805;DHT22;33568;45.286;9.900;2022-12-18T11:52:39;8.80;99.90
47805;DHT22;33568;45.286;9.900;2022-12-18T11:55:31;9.60;99.90
47805;DHT22;33568;45.286;9.900;2022-12-18T11:58:13;10.90;99.90
47805;DHT22;33568;45.286;9.900;2022-12-18T12:09:03;12.00;97.80
47805;DHT22;33568;45.286;9.900;2022-12-18T12:11:53;11.70;98.30
47805;DHT22;33568;45.286;9.900;2022-12-18T12:16:59;11.90;98.20
47805;DHT22;33568;45.286;9.900;2022-12-18T12:22:35;11.20;97.90
47805;DHT22;33568;45.286;9.900;2022-12-18T12:30:19;10.30;98.80
47805;DHT22;33568;45.286;9.900;2022-12-18T12:33:30;10.00;99.10
47805;DHT22;33568;45.286;9.900;2022-12-18T12:38:43;9.60;99.80
47805;DHT22;33568;45.286;9.900;2022-12-18T12:41:18;9.40;99.90
47805;DHT22;33568;45.286;9.900;2022-12-18T12:44:07;9.20;99.90
47805;DHT22;33568;45.286;9.900;2022-12-18T12:46:39;9.00;99.90
47805;DHT22;33568;45.286;9.900;2022-12-18T12:49:17;9.00;99.90
47805;DHT22;33568;45.286;9.900;2022-12-18T12:51:50;8.90;99.90
47805;DHT22;33568;45.286;9.900;2022-12-18T12:54:22;8.90;99.90
47805;DHT22;33568;45.286;9.900;2022-12-18T12:57:15;8.90;99.90
47805;DHT22;33568;45.286;9.900;2022-12-18T13:00:04;8.90;99.90
47805;DHT22;33568;45.286;9.900;2022-12-18T13:05:25;8.80;99.90
47805;DHT22;33568;45.286;9.900;2022-12-18T13:08:00;8.80;99.90
47805;DHT22;33568;45.286;9.900;2022-12-18T13:10:31;8.80;99.90
47805;DHT22;33568;45.286;9.900;2022-12-18T13:13:03;8.70;99.90
47805;DHT22;33568;45.286;9.900;2022-12-18T13:15:31;8.70;99.90
47805;DHT22;33568;45.286;9.900;2022-12-18T13:18:11;8.70;99.90
47805;DHT22;33568;45.286;9.900;2022-12-18T13:31:57;8.50;99.90
47805;DHT22;33568;45.286;9.900;2022-12-18T13:34:24;8.50;99.90
47805;DHT22;33568;45.286;9.900;2022-12-18T13:36:52;8.50;99.90
47805;DHT22;33568;45.286;9.900;2022-12-18T13:41:49;8.50;99.90
47805;DHT22;33568;45.286;9.900;2022-12-18T13:44:31;8.50;99.90
47805;DHT22;33568;45.286;9.900;2022-12-18T13:46:59;8.50;99.90
47805;DHT22;33568;45.286;9.900;2022-12-18T13:49:41;8.40;99.90
47805;DHT22;33568;45.286;9.900;2022-12-18T13:52:36;8.40;99.90
47805;DHT22;33568;45.286;9.900;2022-12-18T13:55:07;8.40;99.90
47805;DHT22;33568;45.286;9.900;2022-12-18T13:57:40;8.40;99.90
47805;DHT22;33568;45.286;9.900;2022-12-18T14:02:46;8.30;99.90
47805;DHT22;33568;45.286;9.900;2022-12-18T14:05:25;8.30;99.90
47805;DHT22;33568;45.286;9.900;2022-12-18T14:07:52;8.40;99.90
47805;DHT22;33568;45.286;9.900;2022-12-18T14:10:20;8.40;99.90
47805;DHT22;33568;45.286;9.900;2022-12-18T14:12:49;8.20;99.90
47805;DHT22;33568;45.286;9.900;2022-12-18T14:15:41;8.20;99.90
47805;DHT22;33568;45.286;9.900;2022-12-18T14:20:43;8.10;99.90
47805;DHT22;33568;45.286;9.900;2022-12-18T14:23:26;8.20;99.90
47805;DHT22;33568;45.286;9.900;2022-12-18T14:25:53;8.20;99.90
47805;DHT22;33568;45.286;9.900;2022-12-18T14:28:19;8.20;99.90
47805;DHT22;33568;45.286;9.900;2022-12-18T14:30:48;8.20;99.90
47805;DHT22;33568;45.286;9.900;2022-12-18T14:33:17;8.30;99.90
47805;DHT22;33568;45.286;9.900;2022-12-18T14:35:58;8.30;99.90
47805;DHT22;33568;45.286;9.900;2022-12-18T14:38:30;8.20;99.90
47805;DHT22;33568;45.286;9.900;2022-12-18T14:41:14;8.30;99.90
47805;DHT22;33568;45.286;9.900;2022-12-18T14:43:43;8.20;99.90
47805;DHT22;33568;45.286;9.900;2022-12-18T14:49:00;8.20;99.90
47805;DHT22;33568;45.286;9.900;2022-12-18T14:51:32;8.20;99.90
47805;DHT22;33568;45.286;9.900;2022-12-18T14:54:02;8.10;99.90
47805;DHT22;33568;45.286;9.900;2022-12-18T14:56:43;8.20;99.90
47805;DHT22;33568;45.286;9.900;2022-12-18T14:59:16;8.10;99.90
47805;DHT22;33568;45.286;9.900;2022-12-18T15:07:15;8.10;99.90
47805;DHT22;33568;45.286;9.900;2022-12-18T15:09:44;8.10;99.90
47805;DHT22;33568;45.286;9.900;2022-12-18T15:12:34;8.10;99.90
47805;DHT22;33568;45.286;9.900;2022-12-18T15:15:01;8.10;99.90
47805;DHT22;33568;45.286;9.900;2022-12-18T15:17:28;8.20;99.90
47805;DHT22;33568;45.286;9.900;2022-12-18T15:20:02;8.10;99.90
47805;DHT22;33568;45.286;9.900;2022-12-18T15:22:32;8.00;99.90
47805;DHT22;33568;45.286;9.900;2022-12-18T15:25:01;8.10;99.90
47805;DHT22;33568;45.286;9.900;2022-12-18T15:27:36;8.10;99.90
47805;DHT22;33568;45.286;9.900;2022-12-18T15:32:37;8.10;99.90
47805;DHT22;33568;45.286;9.900;2022-12-18T15:37:42;8.10;99.90
47805;DHT22;33568;45.286;9.900;2022-12-18T15:40:13;8.10;99.90
47805;DHT22;33568;45.286;9.900;2022-12-18T15:42:40;8.10;99.90
47805;DHT22;33568;45.286;9.900;2022-12-18T15:45:24;8.10;99.90
47805;DHT22;33568;45.286;9.900;2022-12-18T15:47:51;8.00;99.90
47805;DHT22;33568;45.286;9.900;2022-12-18T15:50:17;8.00;99.90
47805;DHT22;33568;45.286;9.900;2022-12-18T15:52:48;7.90;99.90
47805;DHT22;33568;45.286;9.900;2022-12-18T15:55:20;8.00;99.90
47805;DHT22;33568;45.286;9.900;2022-12-18T15:58:07;8.00;99.90
47805;DHT22;33568;45.286;9.900;2022-12-18T16:00:35;8.00;99.90
47805;DHT22;33568;45.286;9.900;2022-12-18T16:03:03;8.00;99.90
47805;DHT22;33568;45.286;9.900;2022-12-18T16:05:30;8.00;99.90
47805;DHT22;33568;45.286;9.900;2022-12-18T16:07:57;8.10;99.90
47805;DHT22;33568;45.286;9.900;2022-12-18T16:10:24;8.00;99.90
47805;DHT22;33568;45.286;9.900;2022-12-18T16:12:51;8.00;99.90
47805;DHT22;33568;45.286;9.900;2022-12-18T16:15:18;8.00;99.90
47805;DHT22;33568;45.286;9.900;2022-12-18T16:17:45;7.90;99.90
47805;DHT22;33568;45.286;9.900;2022-12-18T16:20:17;7.90;99.90
47805;DHT22;33568;45.286;9.900;2022-12-18T16:22:44;8.00;99.90
47805;DHT22;33568;45.286;9.900;2022-12-18T16:27:43;8.00;99.90
47805;DHT22;33568;45.286;9.900;2022-12-18T16:30:18;8.00;99.90
47805;DHT22;33568;45.286;9.900;2022-12-18T16:32:45;8.00;99.90
47805;DHT22;33568;45.286;9.900;2022-12-18T16:35:14;7.90;99.90
47805;DHT22;33568;45.286;9.900;2022-12-18T16:37:41;8.00;99.90
47805;DHT22;33568;45.286;9.900;2022-12-18T16:40:11;8.00;99.90
47805;DHT22;33568;45.286;9.900;2022-12-18T16:42:42;8.00;99.90
47805;DHT22;33568;45.286;9.900;2022-12-18T16:45:14;7.90;99.90
47805;DHT22;33568;45.286;9.900;2022-12-18T16:47:41;7.90;99.90
47805;DHT22;33568;45.286;9.900;2022-12-18T16:50:08;7.90;99.90
47805;DHT22;33568;45.286;9.900;2022-12-18T16:52:35;7.90;99.90
47805;DHT22;33568;45.286;9.900;2022-12-18T16:55:02;8.00;99.90
47805;DHT22;33568;45.286;9.900;2022-12-18T16:57:28;7.90;99.90
47805;DHT22;33568;45.286;9.900;2022-12-18T16:59:55;7.90;99.90
47805;DHT22;33568;45.286;9.900;2022-12-18T17:02:24;8.00;99.90
47805;DHT22;33568;45.286;9.900;2022-12-18T17:04:55;8.00;99.90
47805;DHT22;33568;45.286;9.900;2022-12-18T17:07:23;7.90;99.90
47805;DHT22;33568;45.286;9.900;2022-12-18T17:09:49;8.00;99.90
47805;DHT22;33568;45.286;9.900;2022-12-18T17:12:16;7.90;99.90
47805;DHT22;33568;45.286;9.900;2022-12-18T17:14:43;7.90;99.90
47805;DHT22;33568;45.286;9.900;2022-12-18T17:17:10;7.90;99.90
47805;DHT22;33568;45.286;9.900;2022-12-18T17:19:36;8.00;99.90
47805;DHT22;33568;45.286;9.900;2022-12-18T17:22:03;7.90;99.90
47805;DHT22;33568;45.286;9.900;2022-12-18T17:24:30;7.90;99.90
47805;DHT22;33568;45.286;9.900;2022-12-18T17:26:56;7.70;99.90
47805;DHT22;33568;45.286;9.900;2022-12-18T17:29:22;7.80;99.90
47805;DHT22;33568;45.286;9.900;2022-12-18T17:31:49;7.80;99.90
47805;DHT22;33568;45.286;9.900;2022-12-18T17:34:15;7.80;99.90
47805;DHT22;33568;45.286;9.900;2022-12-18T17:36:41;7.70;99.90
47805;DHT22;33568;45.286;9.900;2022-12-18T17:39:16;7.60;99.90
47805;DHT22;33568;45.286;9.900;2022-12-18T17:41:43;7.70;99.90
47805;DHT22;33568;45.286;9.900;2022-12-18T17:44:10;7.60;99.90
47805;DHT22;33568;45.286;9.900;2022-12-18T17:46:36;7.60;99.90
47805;DHT22;33568;45.286;9.900;2022-12-18T17:49:03;7.60;99.90